Time;durP1;ratioP1;P1;durP2;ratioP2;P2;SDS_P1;SDS_P2;PMS_P1;PMS_P2;Temp;Humidity;BMP_temperature;BMP_pressure;BME280_temperature;BME280_humidity;BME280_pressure;Samples;Min_cycle;Max_cycle;Signal;HPM_P1;HPM_P2
2023/12/13 00:00:56;;;;;;;22.70;9.70;;;;;;;2.29;79.87;98275.11;105547;1253;96585;-71
2023/12/13 00:03:34;;;;;;;23.40;10.20;;;;;;;2.29;79.84;98262.88;105706;1253;110792;-73
2023/12/13 00:06:03;;;;;;;25.00;10.60;;;;;;;2.31;79.79;98269.99;105561;1256;97339;-72
2023/12/13 00:08:31;;;;;;;23.20;9.30;;;;;;;2.30;80.04;98271.40;105144;1257;107740;-73
2023/12/13 00:10:59;;;;;;;21.70;9.30;;;;;;;2.31;79.89;98261.41;105252;1254;97099;-72
2023/12/13 00:13:27;;;;;;;20.50;8.60;;;;;;;2.32;79.82;98259.62;105227;1252;96706;-72
2023/12/13 00:15:55;;;;;;;21.70;9.10;;;;;;;2.32;79.88;98256.45;105226;1257;109765;-72
2023/12/13 00:18:23;;;;;;;25.40;9.50;;;;;;;2.33;79.82;98255.00;105234;1256;96702;-73
2023/12/13 00:20:52;;;;;;;23.20;9.10;;;;;;;2.33;79.93;98254.33;105234;1256;108167;-73
2023/12/13 00:23:20;;;;;;;21.60;9.20;;;;;;;2.34;79.85;98251.63;105501;1257;96699;-73
2023/12/13 00:25:48;;;;;;;21.20;8.50;;;;;;;2.35;80.31;98248.42;105322;1254;96625;-74
2023/12/13 00:28:16;;;;;;;23.00;9.70;;;;;;;2.36;79.98;98251.16;105693;1256;109969;-74
2023/12/13 00:30:45;;;;;;;21.80;8.70;;;;;;;2.36;79.90;98252.19;105569;1254;96607;-73
2023/12/13 00:33:13;;;;;;;20.80;8.80;;;;;;;2.37;80.11;98244.30;105560;1256;107102;-73
2023/12/13 00:35:41;;;;;;;22.50;8.90;;;;;;;2.36;79.89;98233.34;105691;1256;97344;-72
2023/12/13 00:38:09;;;;;;;21.50;9.60;;;;;;;2.35;79.95;98231.81;105498;1258;96609;-73
2023/12/13 00:40:37;;;;;;;20.90;9.40;;;;;;;2.33;79.84;98228.92;105363;1254;109037;-73
2023/12/13 00:43:05;;;;;;;21.50;9.20;;;;;;;2.33;79.73;98232.42;105992;1256;96600;-75
2023/12/13 00:45:33;;;;;;;21.60;8.90;;;;;;;2.33;79.75;98231.88;105743;1253;107629;-72
2023/12/13 00:48:02;;;;;;;22.80;9.30;;;;;;;2.32;79.64;98238.42;105571;1253;96584;-74
2023/12/13 00:50:30;;;;;;;20.30;9.00;;;;;;;2.30;79.87;98237.48;105747;1253;97609;-73
2023/12/13 00:52:58;;;;;;;21.70;8.50;;;;;;;2.29;79.62;98237.17;105537;1253;109027;-75
2023/12/13 00:55:28;;;;;;;23.70;9.60;;;;;;;2.30;79.95;98236.45;105438;1253;96618;-71
2023/12/13 00:57:57;;;;;;;21.50;9.30;;;;;;;2.31;79.67;98238.48;105445;1256;108193;-73
2023/12/13 01:00:25;;;;;;;20.80;9.20;;;;;;;2.31;79.47;98243.04;105465;1256;96615;-73
2023/12/13 01:02:53;;;;;;;21.80;10.00;;;;;;;2.32;79.82;98239.83;105379;1256;97554;-72
2023/12/13 01:05:21;;;;;;;22.10;9.50;;;;;;;2.34;79.82;98230.81;105201;1256;109608;-72
2023/12/13 01:07:49;;;;;;;22.00;10.10;;;;;;;2.34;79.72;98234.46;105500;1254;97397;-73
2023/12/13 01:10:18;;;;;;;28.40;12.60;;;;;;;2.36;79.71;98235.40;105612;1256;107491;-73
2023/12/13 01:12:46;;;;;;;21.20;9.00;;;;;;;2.40;79.73;98234.36;105199;1254;96705;-73
2023/12/13 01:15:14;;;;;;;24.50;10.20;;;;;;;2.41;79.77;98228.16;105358;1253;96593;-74
2023/12/13 01:17:43;;;;;;;22.20;9.70;;;;;;;2.42;79.71;98225.50;105445;1257;109822;-73
2023/12/13 01:20:11;;;;;;;24.40;11.30;;;;;;;2.42;79.79;98224.63;105461;1256;97394;-73
2023/12/13 01:22:39;;;;;;;24.30;10.60;;;;;;;2.43;79.95;98219.33;105504;1256;107607;-73
2023/12/13 01:25:08;;;;;;;23.10;9.70;;;;;;;2.44;79.78;98204.20;105381;1258;96672;-72
2023/12/13 01:27:36;;;;;;;20.10;8.20;;;;;;;2.46;79.94;98194.48;105291;1256;96623;-74
2023/12/13 01:30:05;;;;;;;22.80;10.40;;;;;;;2.47;80.19;98183.36;105381;1258;108933;-72
2023/12/13 01:32:33;;;;;;;22.60;9.20;;;;;;;2.48;79.87;98177.39;105504;1256;96689;-73
2023/12/13 01:35:01;;;;;;;24.20;9.40;;;;;;;2.47;79.85;98165.17;105204;1256;107670;-72
2023/12/13 01:37:29;;;;;;;23.10;10.20;;;;;;;2.47;80.02;98166.56;105531;1256;97929;-75
2023/12/13 01:39:58;;;;;;;21.60;8.70;;;;;;;2.49;80.09;98168.06;105498;1253;96609;-74
2023/12/13 01:42:26;;;;;;;21.10;8.80;;;;;;;2.49;80.24;98172.05;105296;1256;109994;-72
2023/12/13 01:44:53;;;;;;;22.20;9.70;;;;;;;2.50;80.06;98163.96;105295;1258;96628;-72
2023/12/13 01:47:21;;;;;;;22.50;9.40;;;;;;;2.52;80.40;98160.86;105306;1254;107102;-73
2023/12/13 01:49:49;;;;;;;22.60;9.90;;;;;;;2.55;80.05;98166.88;105458;1256;96671;-75
2023/12/13 01:52:17;;;;;;;23.30;9.90;;;;;;;2.56;80.07;98163.16;105213;1257;96605;-74
2023/12/13 01:54:47;;;;;;;22.10;9.80;;;;;;;2.58;80.26;98164.09;105515;1253;110065;-72
2023/12/13 01:57:15;;;;;;;28.00;12.10;;;;;;;2.60;79.80;98158.89;105435;1253;96603;-73
2023/12/13 01:59:43;;;;;;;24.90;10.90;;;;;;;2.62;80.03;98150.04;105382;1254;105600;-74
2023/12/13 02:02:11;;;;;;;22.60;9.00;;;;;;;2.63;79.83;98145.81;105826;1253;96644;-73
2023/12/13 02:04:41;;;;;;;20.60;8.40;;;;;;;2.64;80.03;98140.85;105229;1259;96703;-74
2023/12/13 02:07:09;;;;;;;21.00;8.90;;;;;;;2.62;79.77;98140.91;105294;1254;109957;-72
2023/12/13 02:09:37;;;;;;;22.00;8.90;;;;;;;2.62;80.03;98133.95;105303;1254;96745;-73
2023/12/13 02:12:05;;;;;;;21.60;8.80;;;;;;;2.60;79.92;98129.13;105288;1258;107665;-73
2023/12/13 02:14:33;;;;;;;20.10;7.90;;;;;;;2.58;79.91;98120.15;105247;1256;97999;-73
2023/12/13 02:17:01;;;;;;;21.90;8.50;;;;;;;2.55;80.04;98123.66;105517;1256;97721;-75
2023/12/13 02:19:29;;;;;;;21.50;9.40;;;;;;;2.51;80.11;98122.48;105243;1254;110128;-75
2023/12/13 02:21:57;;;;;;;20.60;9.00;;;;;;;2.50;79.88;98118.98;105290;1254;96655;-73
2023/12/13 02:24:30;;;;;;;24.00;10.20;;;;;;;2.50;79.74;98117.59;105454;1260;107722;-73
2023/12/13 02:26:58;;;;;;;22.40;10.00;;;;;;;2.50;80.05;98119.86;105413;1256;96671;-75
2023/12/13 02:29:28;;;;;;;23.10;10.60;;;;;;;2.51;80.12;98113.35;105644;1256;97442;-73
2023/12/13 02:31:56;;;;;;;22.80;9.70;;;;;;;2.52;80.22;98106.44;105473;1256;109971;-74
2023/12/13 02:34:24;;;;;;;23.60;10.30;;;;;;;2.55;80.14;98100.71;105407;1256;96626;-74
2023/12/13 02:36:52;;;;;;;22.70;10.40;;;;;;;2.59;80.20;98097.71;105250;1257;108216;-73
2023/12/13 02:39:20;;;;;;;23.80;10.50;;;;;;;2.61;80.15;98095.45;105352;1256;96718;-73
2023/12/13 02:41:48;;;;;;;24.90;10.50;;;;;;;2.64;79.92;98104.42;105452;1253;96619;-73
2023/12/13 02:44:16;;;;;;;24.80;10.30;;;;;;;2.67;80.10;98096.01;105230;1257;109631;-73
2023/12/13 02:46:44;;;;;;;22.20;10.10;;;;;;;2.71;80.33;98095.30;105447;1256;97821;-72
2023/12/13 02:49:12;;;;;;;24.80;9.90;;;;;;;2.73;80.10;98101.10;105422;1254;107598;-74
2023/12/13 02:51:40;;;;;;;22.70;9.60;;;;;;;2.77;80.00;98105.64;105271;1254;97912;-73
2023/12/13 02:54:08;;;;;;;23.90;11.10;;;;;;;2.79;80.28;98104.08;105515;1256;96548;-74
2023/12/13 02:56:36;;;;;;;23.70;10.10;;;;;;;2.83;80.24;98100.40;105501;1257;108933;-73
2023/12/13 02:59:04;;;;;;;22.70;9.70;;;;;;;2.85;79.98;98094.30;105225;1256;96658;-73
2023/12/13 03:01:32;;;;;;;22.40;9.80;;;;;;;2.86;80.12;98092.54;105505;1257;108316;-73
2023/12/13 03:04:02;;;;;;;25.60;10.90;;;;;;;2.87;80.34;98089.33;105550;1254;96681;-74
2023/12/13 03:06:30;;;;;;;21.00;9.70;;;;;;;2.90;80.38;98085.65;105633;1256;97541;-72
2023/12/13 03:08:57;;;;;;;21.70;9.60;;;;;;;2.92;80.28;98083.79;105491;1254;109853;-72
2023/12/13 03:11:25;;;;;;;23.80;11.50;;;;;;;2.92;80.04;98083.77;105628;1258;97899;-74
2023/12/13 03:13:53;;;;;;;28.10;12.50;;;;;;;2.93;80.34;98084.04;105466;1256;107104;-74
2023/12/13 03:16:21;;;;;;;25.00;10.40;;;;;;;2.95;80.02;98079.74;105468;1257;96689;-73
2023/12/13 03:18:51;;;;;;;25.80;10.90;;;;;;;2.95;80.08;98073.77;105285;1254;96594;-73
2023/12/13 03:21:19;;;;;;;24.70;11.10;;;;;;;2.96;80.08;98066.57;105493;1256;109457;-73
2023/12/13 03:23:47;;;;;;;26.10;11.20;;;;;;;2.99;80.24;98062.91;105303;1256;96638;-74
2023/12/13 03:26:18;;;;;;;23.60;11.00;;;;;;;3.01;80.24;98057.71;105440;1259;107835;-73
2023/12/13 03:28:46;;;;;;;27.40;11.30;;;;;;;3.02;80.06;98053.43;105394;1260;96709;-72
2023/12/13 03:31:14;;;;;;;22.70;9.50;;;;;;;3.04;80.08;98054.77;105619;1256;96591;-74
2023/12/13 03:33:42;;;;;;;23.50;10.30;;;;;;;3.05;80.28;98054.12;105249;1256;109467;-73
2023/12/13 03:36:15;;;;;;;24.50;9.90;;;;;;;3.06;80.06;98045.63;105479;1256;96602;-74
2023/12/13 03:38:46;;;;;;;23.50;10.50;;;;;;;3.07;80.07;98038.42;105480;1257;107573;-73
2023/12/13 03:41:14;;;;;;;23.70;10.40;;;;;;;3.07;80.37;98041.59;105199;1258;96686;-72
2023/12/13 03:43:42;;;;;;;22.40;10.20;;;;;;;3.07;80.27;98033.16;105628;1256;96549;-72
2023/12/13 03:46:12;;;;;;;25.30;10.20;;;;;;;3.07;79.94;98022.48;105255;1256;110061;-73
2023/12/13 03:48:40;;;;;;;24.60;12.50;;;;;;;3.07;80.19;98020.19;105454;1254;96536;-74
2023/12/13 03:51:08;;;;;;;25.40;11.00;;;;;;;3.07;80.30;98020.54;105506;1254;107475;-73
2023/12/13 03:53:39;;;;;;;23.50;10.20;;;;;;;3.07;80.22;98022.29;105252;1256;97830;-74
2023/12/13 03:56:07;;;;;;;23.10;10.20;;;;;;;3.08;80.13;98021.20;105445;1254;96643;-73
2023/12/13 03:58:36;;;;;;;23.10;10.10;;;;;;;3.10;80.23;98019.16;105250;1258;109893;-75
2023/12/13 04:01:05;;;;;;;25.80;10.60;;;;;;;3.11;80.56;98016.25;105372;1256;96613;-73
2023/12/13 04:03:34;;;;;;;26.20;11.40;;;;;;;3.12;80.40;98013.06;105195;1255;106771;-72
2023/12/13 04:06:03;;;;;;;23.10;11.30;;;;;;;3.14;80.23;98013.34;105490;1257;97635;-75
2023/12/13 04:08:31;;;;;;;26.10;11.30;;;;;;;3.16;80.15;98017.05;105688;1256;96613;-75
2023/12/13 04:10:59;;;;;;;24.50;10.80;;;;;;;3.19;80.28;98019.52;105675;1256;109484;-75
2023/12/13 04:13:31;;;;;;;28.10;12.30;;;;;;;3.21;80.17;98024.66;105430;1256;97442;-75
2023/12/13 04:15:59;;;;;;;25.40;11.70;;;;;;;3.23;80.30;98016.66;105706;1256;106201;-76
2023/12/13 04:18:27;;;;;;;24.90;11.50;;;;;;;3.23;80.44;98010.83;105345;1256;96757;-76
2023/12/13 04:20:56;;;;;;;24.00;11.30;;;;;;;3.24;80.45;98007.30;105678;1254;97546;-73
2023/12/13 04:23:24;;;;;;;27.10;11.10;;;;;;;3.23;80.09;98005.06;105770;1254;109070;-73
2023/12/13 04:25:52;;;;;;;25.40;11.40;;;;;;;3.23;80.09;98007.36;105458;1257;97521;-71
2023/12/13 04:28:20;;;;;;;24.50;10.80;;;;;;;3.23;80.27;98015.93;106302;1256;108177;-70
2023/12/13 04:30:49;;;;;;;26.70;11.90;;;;;;;3.24;80.24;98013.91;105676;1257;96623;-72
2023/12/13 04:33:18;;;;;;;29.00;11.90;;;;;;;3.25;80.20;98009.48;105705;1257;96696;-70
2023/12/13 04:35:47;;;;;;;22.90;10.40;;;;;;;3.27;80.24;98007.84;105294;1266;109825;-71
2023/12/13 04:38:15;;;;;;;24.30;10.90;;;;;;;3.28;80.13;98007.93;107197;1256;96681;-73
2023/12/13 04:40:42;;;;;;;24.00;10.80;;;;;;;3.28;80.17;98002.69;105319;1256;106031;-70
2023/12/13 04:43:10;;;;;;;24.10;10.60;;;;;;;3.27;80.23;98000.95;105647;1257;96596;-70
2023/12/13 04:45:38;;;;;;;23.20;9.60;;;;;;;3.26;80.13;97997.67;105449;1253;96657;-71
2023/12/13 04:48:06;;;;;;;26.70;12.30;;;;;;;3.25;80.24;97991.79;106304;1254;110027;-70
2023/12/13 04:50:35;;;;;;;23.20;10.90;;;;;;;3.25;79.99;97989.35;105735;1254;96599;-72
2023/12/13 04:53:02;;;;;;;24.70;10.80;;;;;;;3.26;80.11;97987.36;105714;1258;107467;-70
2023/12/13 04:55:30;;;;;;;26.60;11.50;;;;;;;3.26;80.25;97986.85;105792;1256;96779;-71
2023/12/13 04:57:58;;;;;;;24.40;11.50;;;;;;;3.26;80.35;97987.02;105948;1256;96600;-73
2023/12/13 05:00:26;;;;;;;22.60;10.00;;;;;;;3.27;80.15;97983.83;105791;1256;109637;-70
2023/12/13 05:02:54;;;;;;;22.20;10.00;;;;;;;3.27;80.15;97988.52;105863;1256;96876;-72
2023/12/13 05:05:22;;;;;;;25.30;11.90;;;;;;;3.28;80.30;97986.55;105431;1256;107058;-71
2023/12/13 05:07:50;;;;;;;22.30;9.80;;;;;;;3.28;80.23;97988.64;105558;1259;96607;-70
2023/12/13 05:10:18;;;;;;;25.10;11.30;;;;;;;3.29;80.28;97994.39;105465;1254;96575;-70
2023/12/13 05:12:46;;;;;;;24.60;11.50;;;;;;;3.30;80.23;97991.52;105426;1254;110550;-72
2023/12/13 05:15:14;;;;;;;26.50;11.80;;;;;;;3.32;80.37;98000.20;105311;1254;96601;-71
2023/12/13 05:17:41;;;;;;;21.80;10.50;;;;;;;3.33;80.34;97993.77;105503;1253;107645;-71
2023/12/13 05:20:10;;;;;;;24.90;11.20;;;;;;;3.34;80.30;97981.98;105259;1256;96600;-73
2023/12/13 05:22:39;;;;;;;24.10;11.00;;;;;;;3.33;80.26;97967.66;105447;1253;97955;-71
2023/12/13 05:25:08;;;;;;;26.80;12.60;;;;;;;3.32;80.23;97961.46;105534;1253;109888;-72
2023/12/13 05:27:36;;;;;;;25.70;11.50;;;;;;;3.32;80.28;97958.11;105539;1258;97334;-73
2023/12/13 05:30:05;;;;;;;24.90;12.50;;;;;;;3.32;80.28;97950.95;105564;1258;107210;-71
2023/12/13 05:32:33;;;;;;;24.10;11.60;;;;;;;3.32;80.35;97948.88;107732;1256;94823;-70
2023/12/13 05:35:01;;;;;;;24.40;10.70;;;;;;;3.31;80.04;97944.00;106259;1255;96682;-70
2023/12/13 05:37:29;;;;;;;27.30;13.20;;;;;;;3.31;80.29;97944.16;105435;1256;108881;-71
2023/12/13 05:39:57;;;;;;;24.50;12.10;;;;;;;3.31;80.30;97941.04;105430;1254;98034;-72
2023/12/13 05:42:25;;;;;;;27.50;12.30;;;;;;;3.30;80.19;97939.83;105516;1256;107213;-70
2023/12/13 05:44:53;;;;;;;26.70;12.10;;;;;;;3.29;80.29;97942.34;105295;1256;96600;-71
2023/12/13 05:47:21;;;;;;;26.20;12.50;;;;;;;3.28;80.33;97947.27;105415;1254;97200;-70
2023/12/13 05:49:49;;;;;;;25.30;11.90;;;;;;;3.30;80.41;97945.46;108082;1254;109256;-70
2023/12/13 05:52:18;;;;;;;26.00;11.80;;;;;;;3.32;80.34;97949.02;105353;1257;96715;-71
2023/12/13 05:54:46;;;;;;;27.40;11.80;;;;;;;3.33;80.46;97947.33;105442;1256;107722;-71
2023/12/13 05:57:13;;;;;;;25.90;12.30;;;;;;;3.35;80.36;97944.77;105561;1256;96597;-71
2023/12/13 05:59:42;;;;;;;28.50;12.70;;;;;;;3.35;80.04;97941.45;105332;1256;97517;-74
2023/12/13 06:02:10;;;;;;;25.50;12.30;;;;;;;3.33;80.15;97936.68;105679;1253;109493;-70
2023/12/13 06:04:41;;;;;;;29.70;13.10;;;;;;;3.31;80.30;97932.05;105400;1256;96622;-70
2023/12/13 06:07:09;;;;;;;27.40;13.50;;;;;;;3.29;80.33;97928.50;107809;1252;107712;-71
2023/12/13 06:09:41;;;;;;;30.40;15.10;;;;;;;3.27;80.31;97930.52;105566;1257;97377;-69
2023/12/13 06:12:10;;;;;;;30.00;14.60;;;;;;;3.27;80.42;97930.02;105638;1253;97840;-74
2023/12/13 06:14:37;;;;;;;32.70;16.90;;;;;;;3.25;80.20;97928.38;106350;1253;109981;-73
2023/12/13 06:17:05;;;;;;;34.50;16.80;;;;;;;3.26;80.02;97928.16;105419;1257;96599;-75
2023/12/13 06:19:36;;;;;;;33.30;16.10;;;;;;;3.27;80.39;97924.97;105529;1254;107198;-74
2023/12/13 06:22:04;;;;;;;29.60;15.00;;;;;;;3.26;80.37;97922.39;105269;1256;96965;-74
2023/12/13 06:24:35;;;;;;;31.70;16.00;;;;;;;3.25;80.27;97925.98;105491;1256;96533;-75
2023/12/13 06:27:06;;;;;;;27.50;14.80;;;;;;;3.21;80.15;97923.55;105625;1256;109401;-74
2023/12/13 06:29:34;;;;;;;29.90;15.80;;;;;;;3.17;80.05;97923.46;105418;1266;97937;-76
2023/12/13 06:32:04;;;;;;;33.10;15.80;;;;;;;3.15;80.01;97923.08;105393;1258;106659;-76
2023/12/13 06:34:32;;;;;;;32.40;16.60;;;;;;;3.13;80.19;97920.89;105471;1256;96613;-74
2023/12/13 06:37:00;;;;;;;32.10;17.50;;;;;;;3.08;80.08;97917.48;105433;1256;97413;-74
2023/12/13 06:39:28;;;;;;;30.90;15.50;;;;;;;3.03;79.96;97917.09;105488;1273;109636;-75
2023/12/13 06:41:56;;;;;;;31.10;16.00;;;;;;;3.00;80.12;97908.73;105559;1256;96779;-74
2023/12/13 06:44:26;;;;;;;30.80;15.10;;;;;;;2.97;80.08;97905.58;105172;1254;107453;-74
2023/12/13 06:46:54;;;;;;;31.20;16.50;;;;;;;2.94;80.13;97902.73;105212;1257;97930;-74
2023/12/13 06:49:23;;;;;;;32.10;16.40;;;;;;;2.94;80.28;97904.85;105446;1257;96667;-74
2023/12/13 06:51:51;;;;;;;31.40;15.90;;;;;;;2.94;80.18;97902.76;105356;1257;109840;-72
2023/12/13 06:54:23;;;;;;;32.60;17.50;;;;;;;2.95;80.18;97904.64;105516;1266;96699;-73
2023/12/13 06:56:51;;;;;;;37.40;20.60;;;;;;;2.95;80.32;97905.99;105688;1256;107555;-73
2023/12/13 06:59:19;;;;;;;35.00;19.90;;;;;;;2.93;80.17;97902.66;105498;1256;96614;-75
2023/12/13 07:01:48;;;;;;;35.30;19.00;;;;;;;2.89;80.07;97903.59;105683;1256;96594;-73
2023/12/13 07:04:16;;;;;;;36.50;19.40;;;;;;;2.87;80.24;97897.60;105564;1252;110138;-76
2023/12/13 07:06:47;;;;;;;33.30;18.50;;;;;;;2.86;80.00;97898.65;105430;1268;97938;-75
2023/12/13 07:09:18;;;;;;;38.20;21.00;;;;;;;2.87;80.04;97898.63;105269;1257;107545;-73
2023/12/13 07:11:50;;;;;;;36.80;20.20;;;;;;;2.87;80.22;97897.56;105409;1254;97573;-77
2023/12/13 07:14:19;;;;;;;36.30;20.40;;;;;;;2.88;80.23;97890.70;105232;1257;96602;-73
2023/12/13 07:16:47;;;;;;;35.30;19.40;;;;;;;2.91;80.22;97887.88;105358;1254;109842;-74
2023/12/13 07:19:15;;;;;;;34.00;17.40;;;;;;;2.93;80.39;97889.86;105625;1254;96581;-74
2023/12/13 07:21:45;;;;;;;36.30;18.20;;;;;;;2.96;80.35;97888.62;105547;1257;107527;-75
2023/12/13 07:24:13;;;;;;;43.70;19.60;;;;;;;2.98;80.23;97884.80;105484;1266;96609;-74
2023/12/13 07:26:41;;;;;;;36.20;19.70;;;;;;;3.01;80.53;97882.73;105313;1257;96544;-73
2023/12/13 07:29:09;;;;;;;35.60;18.30;;;;;;;3.04;80.30;97881.67;105482;1256;109505;-73
2023/12/13 07:31:39;;;;;;;34.40;18.20;;;;;;;3.07;80.43;97883.05;105338;1258;97536;-73
2023/12/13 07:34:11;;;;;;;32.30;17.50;;;;;;;3.08;80.30;97880.52;105351;1257;107305;-77
2023/12/13 07:36:45;;;;;;;34.20;18.60;;;;;;;3.09;80.35;97876.95;105433;1256;96614;-73
2023/12/13 07:39:16;;;;;;;;;;;;;;;3.10;80.39;97875.15;105349;1256;96701;-74
2023/12/13 07:41:44;;;;;;;28.20;15.40;;;;;;;3.10;80.23;97871.86;105186;1256;109506;-72
2023/12/13 07:44:16;;;;;;;28.70;14.00;;;;;;;3.12;80.32;97874.02;105427;1254;96679;-74
2023/12/13 07:46:44;;;;;;;34.80;16.40;;;;;;;3.13;80.36;97872.52;105363;1257;107602;-77
2023/12/13 07:49:13;;;;;;;30.80;16.80;;;;;;;3.15;80.39;97878.41;105331;1256;97830;-77
2023/12/13 07:51:41;;;;;;;34.00;17.60;;;;;;;3.15;80.19;97880.67;105505;1259;97640;-75
2023/12/13 07:54:15;;;;;;;35.50;18.80;;;;;;;3.14;80.18;97876.33;105188;1257;109896;-72
2023/12/13 07:56:45;;;;;;;37.10;20.70;;;;;;;3.14;80.16;97870.73;105269;1256;96526;-74
2023/12/13 07:59:16;;;;;;;35.20;18.90;;;;;;;3.14;80.38;97865.61;105330;1256;107383;-75
2023/12/13 08:01:44;;;;;;;38.30;19.80;;;;;;;3.14;80.14;97862.51;105544;1257;96693;-74
2023/12/13 08:04:12;;;;;;;30.80;14.60;;;;;;;3.14;80.24;97864.73;105216;1256;97834;-76
2023/12/13 08:06:40;;;;;;;26.90;13.00;;;;;;;3.18;80.51;97871.00;105222;1256;109535;-74
2023/12/13 08:09:11;;;;;;;25.50;12.80;;;;;;;3.24;80.28;97876.95;105478;1256;96607;-76
2023/12/13 08:11:40;;;;;;;25.60;11.70;;;;;;;3.29;80.51;97869.13;105166;1257;109157;-74
2023/12/13 08:14:10;;;;;;;24.70;11.90;;;;;;;3.35;80.71;97862.98;105273;1254;97017;-74
2023/12/13 08:16:38;;;;;;;23.80;12.00;;;;;;;3.39;80.50;97863.89;105616;1256;96629;-76
2023/12/13 08:19:08;;;;;;;24.50;12.70;;;;;;;3.44;80.71;97865.36;105380;1257;108705;-73
2023/12/13 08:21:40;;;;;;;22.00;10.80;;;;;;;3.49;80.75;97870.71;105252;1259;96684;-75
2023/12/13 08:24:13;;;;;;;23.60;12.20;;;;;;;3.52;80.77;97875.57;105334;1254;107665;-73
2023/12/13 08:26:41;;;;;;;26.00;12.50;;;;;;;3.55;80.85;97874.85;105205;1259;97122;-75
2023/12/13 08:29:18;;;;;;;25.90;11.90;;;;;;;3.58;80.73;97870.27;105210;1257;96580;-74
2023/12/13 08:31:47;;;;;;;22.00;10.90;;;;;;;3.61;80.78;97867.52;105152;1256;109135;-74
2023/12/13 08:34:18;;;;;;;22.10;10.10;;;;;;;3.62;80.85;97868.30;105579;1256;96521;-76
2023/12/13 08:36:46;;;;;;;22.50;10.00;;;;;;;3.64;80.96;97869.58;105494;1254;107480;-74
2023/12/13 08:39:14;;;;;;;24.90;11.30;;;;;;;3.67;80.77;97870.42;105595;1256;96664;-74
2023/12/13 08:41:42;;;;;;;32.70;15.60;;;;;;;3.69;80.81;97863.23;105587;1257;96601;-74
2023/12/13 08:44:10;;;;;;;28.00;15.10;;;;;;;3.70;80.73;97865.52;105743;1256;110363;-75
2023/12/13 08:46:40;;;;;;;33.70;16.80;;;;;;;3.68;80.67;97863.84;105634;1256;96697;-75
2023/12/13 08:49:08;;;;;;;36.30;18.30;;;;;;;3.66;80.68;97855.96;105232;1257;107719;-76
2023/12/13 08:51:36;;;;;;;36.10;18.50;;;;;;;3.62;80.63;97852.49;105478;1256;97216;-73
2023/12/13 08:54:04;;;;;;;34.70;18.00;;;;;;;3.61;80.59;97852.77;105409;1257;96573;-75
2023/12/13 08:56:32;;;;;;;32.30;16.80;;;;;;;3.56;80.47;97851.44;105536;1257;108798;-74
2023/12/13 08:59:12;;;;;;;37.40;19.70;;;;;;;3.53;80.49;97854.44;105301;1254;96625;-75
2023/12/13 09:01:42;;;;;;;37.60;19.30;;;;;;;3.45;80.34;97855.34;105448;1256;107747;-74
2023/12/13 09:04:11;;;;;;;34.60;18.70;;;;;;;3.39;80.51;97852.38;105144;1259;96665;-75
2023/12/13 09:06:39;;;;;;;34.00;17.50;;;;;;;3.38;80.46;97847.02;105371;1256;96552;-75
2023/12/13 09:09:11;;;;;;;35.00;18.50;;;;;;;3.36;80.50;97840.31;105483;1256;109407;-74
2023/12/13 09:11:39;;;;;;;37.30;19.40;;;;;;;3.32;80.53;97840.52;105217;1256;96597;-76
2023/12/13 09:14:07;;;;;;;36.60;19.30;;;;;;;3.27;80.63;97836.24;105388;1258;107636;-72
2023/12/13 09:16:35;;;;;;;32.80;18.30;;;;;;;3.27;80.40;97831.02;105306;1257;96660;-75
2023/12/13 09:19:08;;;;;;;33.00;18.40;;;;;;;3.27;80.40;97828.52;105219;1260;96549;-74
2023/12/13 09:21:36;;;;;;;34.70;18.20;;;;;;;3.26;80.42;97827.79;105362;1256;109910;-73
2023/12/13 09:24:04;;;;;;;37.50;20.20;;;;;;;3.20;80.33;97824.98;105420;1256;96618;-75
2023/12/13 09:26:37;;;;;;;43.10;23.60;;;;;;;3.16;80.47;97819.80;105493;1266;107659;-75
2023/12/13 09:29:07;;;;;;;42.50;25.60;;;;;;;3.07;80.49;97813.87;105289;1257;96702;-74
2023/12/13 09:31:39;;;;;;;46.00;25.10;;;;;;;3.00;80.76;97809.41;105407;1257;96670;-76
2023/12/13 09:34:07;;;;;;;48.50;25.20;;;;;;;2.96;80.77;97806.65;105333;1257;109931;-74
2023/12/13 09:36:37;;;;;;;43.20;24.60;;;;;;;2.91;80.87;97810.32;105192;1257;96658;-76
2023/12/13 09:39:05;;;;;;;41.00;22.90;;;;;;;2.89;80.75;97805.33;105541;1257;106632;-76
2023/12/13 09:41:47;;;;;;;42.20;25.60;;;;;;;2.92;80.88;97812.51;105348;1259;96709;-75
2023/12/13 09:44:17;;;;;;;42.80;25.00;;;;;;;2.90;80.70;97803.86;105261;1257;97330;-74
2023/12/13 09:46:50;;;;;;;46.20;26.80;;;;;;;2.88;80.88;97799.61;105474;1256;110409;-75
2023/12/13 09:49:20;;;;;;;;;;;;;;;2.85;80.80;97787.93;105300;1265;96673;-73
2023/12/13 09:52:07;;;;;;;36.50;20.20;;;;;;;2.81;80.89;97791.13;105493;1257;106954;-78
2023/12/13 09:54:41;;;;;;;45.80;23.80;;;;;;;2.81;80.94;97791.48;105372;1259;96729;-75
2023/12/13 09:57:09;;;;;;;43.70;26.60;;;;;;;2.84;81.09;97791.46;105450;1257;97584;-76
2023/12/13 09:59:40;;;;;;;48.80;26.10;;;;;;;2.86;80.90;97789.58;105354;1254;109811;-76
2023/12/13 10:02:15;;;;;;;44.70;25.40;;;;;;;2.88;80.98;97776.31;105745;1257;96634;-74
2023/12/13 10:04:52;;;;;;;44.70;25.30;;;;;;;2.85;80.61;97763.56;105253;1267;107483;-76
2023/12/13 10:07:25;;;;;;;43.80;24.80;;;;;;;2.83;80.95;97761.92;105168;1259;97530;-75
2023/12/13 10:09:55;;;;;;;43.50;25.30;;;;;;;2.83;80.86;97761.40;105526;1256;96609;-74
2023/12/13 10:12:26;;;;;;;44.80;24.50;;;;;;;2.83;80.85;97764.21;105556;1255;109968;-73
2023/12/13 10:14:55;;;;;;;41.30;25.50;;;;;;;2.85;80.74;97758.01;105396;1258;96619;-75
2023/12/13 10:17:25;;;;;;;40.60;24.20;;;;;;;2.86;80.97;97748.46;105245;1257;107540;-75
2023/12/13 10:19:53;;;;;;;43.40;26.70;;;;;;;2.84;81.07;97735.27;105440;1266;96654;-73
2023/12/13 10:22:25;;;;;;;48.40;25.40;;;;;;;2.82;80.68;97737.66;105255;1257;96725;-73
2023/12/13 10:24:54;;;;;;;43.50;25.40;;;;;;;2.80;80.74;97733.23;105418;1257;109751;-75
2023/12/13 10:27:22;;;;;;;46.50;27.70;;;;;;;2.80;81.01;97743.20;105223;1269;96629;-76
2023/12/13 10:29:53;;;;;;;43.30;26.20;;;;;;;2.79;81.10;97750.23;105171;1264;106919;-74
2023/12/13 10:32:22;;;;;;;48.00;28.50;;;;;;;2.81;80.95;97756.95;105180;1256;97547;-73
2023/12/13 10:34:49;;;;;;;48.50;29.90;;;;;;;2.83;80.97;97757.57;105211;1266;96625;-74
2023/12/13 10:37:18;;;;;;;48.70;29.90;;;;;;;2.85;80.81;97754.83;105248;1266;109713;-74
2023/12/13 10:39:50;;;;;;;50.70;29.40;;;;;;;2.89;81.10;97755.98;105762;1257;96636;-76
2023/12/13 10:42:20;;;;;;;49.90;29.20;;;;;;;2.90;81.05;97750.48;105458;1256;106240;-75
2023/12/13 10:44:50;;;;;;;52.30;31.20;;;;;;;2.89;80.73;97748.23;105516;1254;97820;-75
2023/12/13 10:47:25;;;;;;;50.90;30.70;;;;;;;2.88;81.00;97743.61;105462;1256;96718;-75
2023/12/13 10:49:58;;;;;;;48.70;29.30;;;;;;;2.90;80.92;97741.36;105309;1257;109424;-74
2023/12/13 10:52:28;;;;;;;50.40;28.80;;;;;;;2.92;80.99;97746.31;105276;1267;96609;-74
2023/12/13 10:54:58;;;;;;;45.80;27.10;;;;;;;2.93;81.05;97745.55;105405;1259;107707;-74
2023/12/13 10:57:29;;;;;;;48.20;29.60;;;;;;;2.95;81.07;97741.39;105217;1257;97938;-75
2023/12/13 10:59:58;;;;;;;48.80;29.80;;;;;;;2.94;81.02;97738.65;105499;1256;96536;-74
2023/12/13 11:03:44;;;;;;;51.00;29.30;;;;;;;2.92;80.90;97733.54;101968;1297;635384;-74
2023/12/13 11:06:14;;;;;;;50.10;30.00;;;;;;;2.89;81.03;97735.45;104680;1266;94395;-74
2023/12/13 11:08:44;;;;;;;50.80;30.10;;;;;;;2.88;81.11;97732.71;105057;1264;94271;-75
2023/12/13 11:11:16;;;;;;;50.20;30.30;;;;;;;2.87;80.95;97731.37;105106;1263;106111;-75
2023/12/13 11:13:49;;;;;;;47.80;29.60;;;;;;;2.88;81.17;97728.38;104772;1262;95494;-75
2023/12/13 11:16:19;;;;;;;46.70;27.70;;;;;;;2.88;81.13;97726.80;105265;1255;162349;-73
2023/12/13 11:18:49;;;;;;;47.90;29.10;;;;;;;2.85;81.07;97725.23;105200;1259;95118;-74
2023/12/13 11:21:29;;;;;;;51.10;30.60;;;;;;;2.85;81.11;97718.60;105701;1257;94428;-74
2023/12/13 11:24:11;;;;;;;51.30;31.00;;;;;;;2.87;80.96;97713.56;105468;1255;107162;-75
2023/12/13 11:26:48;;;;;;;49.70;29.90;;;;;;;2.90;81.30;97706.86;105332;1256;94398;-73